Time,TemperatureF,DewpointF,PressureIn,WindDirection,WindDirectionDegrees,WindSpeedMPH,WindSpeedGustMPH,Humidity,HourlyPrecipIn,Conditions,Clouds,dailyrainin,SoftwareType,DateUTC
2013-05-10 00:02:00,50.0,48.0,30.11,NNE,20,8.0,-999.0,93,-99.99,,,-99.99,,2013-05-10 05:02:00,
2013-05-10 00:12:00,52.0,48.0,30.10,North,10,12.0,16.0,87,-99.99,,,-99.99,,2013-05-10 05:12:00,
2013-05-10 00:22:00,52.0,48.0,30.10,North,10,12.0,16.0,87,-99.99,,,-99.99,,2013-05-10 05:22:00,
2013-05-10 00:32:00,50.0,48.0,30.11,North,10,9.0,-999.0,93,-99.99,,,-99.99,,2013-05-10 05:32:00,
2013-05-10 00:42:00,50.0,48.0,30.11,North,10,9.0,-999.0,93,-99.99,,,-99.99,,2013-05-10 05:42:00,
2013-05-10 00:52:00,48.0,46.0,30.11,North,10,14.0,-999.0,93,-99.99,,,-99.99,,2013-05-10 05:52:00,
2013-05-10 01:01:00,48.0,46.0,30.11,North,10,14.0,-999.0,93,-99.99,,,-99.99,,2013-05-10 06:01:00,
2013-05-10 01:12:00,48.0,46.0,30.12,NNE,20,9.0,-999.0,93,-99.99,,,-99.99,,2013-05-10 06:12:00,
2013-05-10 01:21:00,48.0,46.0,30.12,NNE,20,9.0,-999.0,93,-99.99,,,-99.99,,2013-05-10 06:21:00,
2013-05-10 01:32:00,46.0,45.0,30.12,NNE,30,9.0,-999.0,93,-99.99,,,-99.99,,2013-05-10 06:32:00,
2013-05-10 01:42:00,46.0,45.0,30.12,NNE,30,9.0,-999.0,93,-99.99,,,-99.99,,2013-05-10 06:42:00,
2013-05-10 01:51:00,46.0,45.0,30.12,NNE,30,8.0,-999.0,93,-99.99,,,-99.99,,2013-05-10 06:51:00,
2013-05-10 02:02:00,46.0,45.0,30.12,NNE,30,8.0,-999.0,93,-99.99,,,-99.99,,2013-05-10 07:02:00,
2013-05-10 02:12:00,46.0,43.0,30.12,NNE,30,8.0,-999.0,87,-99.99,,,-99.99,,2013-05-10 07:12:00,
2013-05-10 02:22:00,46.0,43.0,30.12,NNE,30,8.0,-999.0,87,-99.99,,,-99.99,,2013-05-10 07:22:00,
2013-05-10 02:31:00,45.0,43.0,30.11,NNE,30,9.0,-999.0,93,-99.99,,,-99.99,,2013-05-10 07:31:00,
2013-05-10 02:42:00,45.0,43.0,30.11,NNE,30,9.0,-999.0,93,-99.99,,,-99.99,,2013-05-10 07:42:00,
2013-05-10 02:52:00,45.0,43.0,30.12,NE,40,7.0,-999.0,93,-99.99,,,-99.99,,2013-05-10 07:52:00,
2013-05-10 03:02:00,45.0,43.0,30.12,NE,40,7.0,-999.0,93,-99.99,,,-99.99,,2013-05-10 08:02:00,
2013-05-10 03:12:00,45.0,41.0,30.12,NNE,30,6.0,-999.0,87,-99.99,,,-99.99,,2013-05-10 08:12:00,
2013-05-10 03:22:00,45.0,41.0,30.12,NNE,30,6.0,-999.0,87,-99.99,,,-99.99,,2013-05-10 08:22:00,
2013-05-10 03:32:00,45.0,41.0,30.12,NE,50,8.0,-999.0,87,-99.99,,,-99.99,,2013-05-10 08:32:00,
2013-05-10 03:42:00,45.0,41.0,30.12,NE,50,8.0,-999.0,87,-99.99,,,-99.99,,2013-05-10 08:42:00,
2013-05-10 03:52:00,43.0,41.0,30.12,North,0,0.0,-999.0,93,-99.99,,,-99.99,,2013-05-10 08:52:00,
2013-05-10 04:01:00,43.0,41.0,30.12,North,0,0.0,-999.0,93,-99.99,,,-99.99,,2013-05-10 09:01:00,
2013-05-10 04:11:00,43.0,39.0,30.13,North,0,0.0,-999.0,86,-99.99,,,-99.99,,2013-05-10 09:11:00,
2013-05-10 04:21:00,43.0,39.0,30.13,North,0,0.0,-999.0,86,-99.99,,,-99.99,,2013-05-10 09:21:00,
2013-05-10 04:32:00,43.0,39.0,30.13,North,0,0.0,-999.0,86,-99.99,,,-99.99,,2013-05-10 09:32:00,
2013-05-10 04:42:00,43.0,39.0,30.13,North,0,0.0,-999.0,86,-99.99,,,-99.99,,2013-05-10 09:42:00,
2013-05-10 04:52:00,41.0,39.0,30.13,North,0,0.0,-999.0,93,-99.99,,,-99.99,,2013-05-10 09:52:00,
2013-05-10 05:03:00,41.0,39.0,30.13,North,0,0.0,-999.0,93,-99.99,,,-99.99,,2013-05-10 10:03:00,
2013-05-10 05:12:00,41.0,39.0,30.13,NNW,340,6.0,-999.0,93,-99.99,,,-99.99,,2013-05-10 10:12:00,
2013-05-10 05:23:00,41.0,39.0,30.13,NNW,340,6.0,-999.0,93,-99.99,,,-99.99,,2013-05-10 10:23:00,
2013-05-10 05:32:00,41.0,39.0,30.13,NNW,340,5.0,-999.0,93,-99.99,,,-99.99,,2013-05-10 10:32:00,
2013-05-10 05:42:00,41.0,39.0,30.13,NNW,340,5.0,-999.0,93,-99.99,,,-99.99,,2013-05-10 10:42:00,
2013-05-10 05:52:00,41.0,37.0,30.13,North,10,5.0,-999.0,86,-99.99,,,-99.99,,2013-05-10 10:52:00,
2013-05-10 06:02:00,41.0,37.0,30.13,North,10,5.0,-999.0,86,-99.99,,,-99.99,,2013-05-10 11:02:00,
2013-05-10 06:12:00,41.0,37.0,30.13,North,10,5.0,-999.0,86,-99.99,,,-99.99,,2013-05-10 11:12:00,
2013-05-10 06:22:00,41.0,37.0,30.13,North,10,5.0,-999.0,86,-99.99,,,-99.99,,2013-05-10 11:22:00,
2013-05-10 06:32:00,39.0,37.0,30.14,North,0,0.0,-999.0,93,-99.99,,,-99.99,,2013-05-10 11:32:00,
2013-05-10 06:42:00,39.0,37.0,30.14,North,0,0.0,-999.0,93,-99.99,,,-99.99,,2013-05-10 11:42:00,
2013-05-10 06:52:00,39.0,37.0,30.14,North,0,0.0,-999.0,93,-99.99,,,-99.99,,2013-05-10 11:52:00,
2013-05-10 07:01:00,39.0,37.0,30.14,North,0,0.0,-999.0,93,-99.99,,,-99.99,,2013-05-10 12:01:00,
2013-05-10 07:12:00,41.0,37.0,30.13,North,360,6.0,-999.0,86,-99.99,,,-99.99,,2013-05-10 12:12:00,
2013-05-10 07:21:00,41.0,37.0,30.13,North,360,6.0,-999.0,86,-99.99,,,-99.99,,2013-05-10 12:21:00,
2013-05-10 07:32:00,43.0,37.0,30.13,NNE,30,7.0,-999.0,81,-99.99,,,-99.99,,2013-05-10 12:32:00,
2013-05-10 07:42:00,43.0,37.0,30.13,NNE,30,7.0,-999.0,81,-99.99,,,-99.99,,2013-05-10 12:42:00,
2013-05-10 07:51:00,43.0,37.0,30.13,NNE,30,7.0,-999.0,81,-99.99,,,-99.99,,2013-05-10 12:51:00,
2013-05-10 08:01:00,43.0,37.0,30.13,NNE,30,7.0,-999.0,81,-99.99,,,-99.99,,2013-05-10 13:01:00,
2013-05-10 08:11:00,43.0,37.0,30.15,NNE,30,6.0,-999.0,81,-99.99,,,-99.99,,2013-05-10 13:11:00,
2013-05-10 08:21:00,43.0,37.0,30.15,NNE,30,6.0,-999.0,81,-99.99,,,-99.99,,2013-05-10 13:21:00,
2013-05-10 08:32:00,43.0,37.0,30.15,NNE,20,8.0,-999.0,81,-99.99,,,-99.99,,2013-05-10 13:32:00,
2013-05-10 08:41:00,43.0,37.0,30.15,NNE,20,8.0,-999.0,81,-99.99,,,-99.99,,2013-05-10 13:41:00,
2013-05-10 08:52:00,45.0,37.0,30.15,NNE,20,8.0,-999.0,75,-99.99,,,-99.99,,2013-05-10 13:52:00,
2013-05-10 09:02:00,45.0,37.0,30.15,NNE,20,8.0,-999.0,75,-99.99,,,-99.99,,2013-05-10 14:02:00,
2013-05-10 09:11:00,45.0,37.0,30.15,North,360,8.0,-999.0,75,-99.99,,,-99.99,,2013-05-10 14:11:00,
2013-05-10 09:21:00,45.0,37.0,30.15,North,360,8.0,-999.0,75,-99.99,,,-99.99,,2013-05-10 14:21:00,
2013-05-10 09:32:00,48.0,39.0,30.15,NNE,20,7.0,-999.0,70,-99.99,,,-99.99,,2013-05-10 14:32:00,
2013-05-10 09:42:00,48.0,39.0,30.15,NNE,20,7.0,-999.0,70,-99.99,,,-99.99,,2013-05-10 14:42:00,
2013-05-10 09:51:00,48.0,39.0,30.15,NNE,20,8.0,-999.0,70,-99.99,,,-99.99,,2013-05-10 14:51:00,
2013-05-10 10:02:00,48.0,39.0,30.15,NNE,20,8.0,-999.0,70,-99.99,,,-99.99,,2013-05-10 15:02:00,
2013-05-10 10:20:00,-999.0,-99.9,30.14,North,0,0.0,-999.0,66,-99.99,,,-99.99,,2013-05-10 15:20:00,
2013-05-10 10:32:00,52.0,41.0,30.14,NNE,30,5.0,-999.0,66,-99.99,,,-99.99,,2013-05-10 15:32:00,
2013-05-10 10:42:00,52.0,41.0,30.14,NNE,30,5.0,-999.0,66,-99.99,,,-99.99,,2013-05-10 15:42:00,
2013-05-10 10:52:00,54.0,43.0,30.14,North,0,0.0,-999.0,66,-99.99,,,-99.99,,2013-05-10 15:52:00,
2013-05-10 11:02:00,54.0,43.0,30.14,North,0,0.0,-999.0,66,-99.99,,,-99.99,,2013-05-10 16:02:00,
2013-05-10 11:12:00,54.0,43.0,30.14,NW,310,6.0,-999.0,66,-99.99,,,-99.99,,2013-05-10 16:12:00,
2013-05-10 11:23:00,54.0,43.0,30.14,NW,310,6.0,-999.0,66,-99.99,,,-99.99,,2013-05-10 16:23:00,
2013-05-10 11:32:00,55.0,45.0,30.14,North,0,0.0,-999.0,66,-99.99,,,-99.99,,2013-05-10 16:32:00,
2013-05-10 11:42:00,55.0,45.0,30.14,North,0,0.0,-999.0,66,-99.99,,,-99.99,,2013-05-10 16:42:00,
2013-05-10 11:52:00,57.0,45.0,30.14,WNW,300,6.0,-999.0,62,-99.99,,,-99.99,,2013-05-10 16:52:00,
2013-05-10 12:02:00,57.0,45.0,30.14,WNW,300,6.0,-999.0,62,-99.99,,,-99.99,,2013-05-10 17:02:00,
2013-05-10 12:12:00,57.0,45.0,30.13,West,260,7.0,-999.0,62,-99.99,,,-99.99,,2013-05-10 17:12:00,
2013-05-10 12:22:00,57.0,45.0,30.13,West,260,7.0,-999.0,62,-99.99,,,-99.99,,2013-05-10 17:22:00,
2013-05-10 12:32:00,59.0,46.0,30.13,NNW,340,7.0,-999.0,62,-99.99,,,-99.99,,2013-05-10 17:32:00,
2013-05-10 12:42:00,59.0,46.0,30.13,NNW,340,7.0,-999.0,62,-99.99,,,-99.99,,2013-05-10 17:42:00,
2013-05-10 12:52:00,59.0,45.0,30.13,WNW,300,5.0,-999.0,58,-99.99,,,-99.99,,2013-05-10 17:52:00,
2013-05-10 13:10:00,-999.0,-99.9,30.13,WNW,300,5.0,-999.0,58,-99.99,,,-99.99,,2013-05-10 18:10:00,
2013-05-10 13:22:00,61.0,46.0,30.12,WNW,290,6.0,-999.0,59,-99.99,,,-99.99,,2013-05-10 18:22:00,
2013-05-10 13:34:00,61.0,46.0,30.11,North,360,8.0,-999.0,59,-99.99,,,-99.99,,2013-05-10 18:34:00,
2013-05-10 13:43:00,61.0,46.0,30.11,North,360,8.0,-999.0,59,-99.99,,,-99.99,,2013-05-10 18:43:00,
2013-05-10 13:54:00,63.0,45.0,30.11,North,350,10.0,-999.0,51,-99.99,,,-99.99,,2013-05-10 18:54:00,
2013-05-10 14:02:00,63.0,45.0,30.11,North,350,10.0,-999.0,51,-99.99,,,-99.99,,2013-05-10 19:02:00,
2013-05-10 14:11:00,63.0,45.0,30.11,North,-99,6.0,-999.0,51,-99.99,,,-99.99,,2013-05-10 19:11:00,
2013-05-10 14:21:00,63.0,45.0,30.11,North,-99,6.0,-999.0,51,-99.99,,,-99.99,,2013-05-10 19:21:00,
2013-05-10 14:32:00,63.0,45.0,30.10,North,0,0.0,-999.0,51,-99.99,,,-99.99,,2013-05-10 19:32:00,
2013-05-10 14:42:00,63.0,45.0,30.10,North,0,0.0,-999.0,51,-99.99,,,-99.99,,2013-05-10 19:42:00,
2013-05-10 14:52:00,64.0,43.0,30.10,West,270,8.0,-999.0,45,-99.99,,,-99.99,,2013-05-10 19:52:00,
2013-05-10 15:01:00,64.0,43.0,30.10,West,270,8.0,-999.0,45,-99.99,,,-99.99,,2013-05-10 20:01:00,
2013-05-10 15:12:00,64.0,43.0,30.09,North,-99,6.0,-999.0,45,-99.99,,,-99.99,,2013-05-10 20:12:00,
2013-05-10 15:21:00,64.0,43.0,30.09,North,-99,6.0,-999.0,45,-99.99,,,-99.99,,2013-05-10 20:21:00,
2013-05-10 15:32:00,66.0,43.0,30.08,NNW,330,8.0,-999.0,42,-99.99,,,-99.99,,2013-05-10 20:32:00,
2013-05-10 15:41:00,66.0,43.0,30.08,NNW,330,8.0,-999.0,42,-99.99,,,-99.99,,2013-05-10 20:41:00,
2013-05-10 15:52:00,66.0,41.0,30.07,WNW,290,6.0,-999.0,39,-99.99,,,-99.99,,2013-05-10 20:52:00,
2013-05-10 16:02:00,66.0,41.0,30.07,WNW,290,6.0,-999.0,39,-99.99,,,-99.99,,2013-05-10 21:02:00,
2013-05-10 16:11:00,68.0,43.0,30.06,NW,320,10.0,16.0,40,-99.99,,,-99.99,,2013-05-10 21:11:00,
2013-05-10 16:25:00,68.0,43.0,30.06,NW,320,10.0,16.0,40,-99.99,,,-99.99,,2013-05-10 21:25:00,
2013-05-10 16:32:00,68.0,43.0,30.06,WSW,250,12.0,17.0,40,-99.99,,,-99.99,,2013-05-10 21:32:00,
2013-05-10 16:43:00,68.0,43.0,30.06,WSW,250,12.0,17.0,40,-99.99,,,-99.99,,2013-05-10 21:43:00,
2013-05-10 16:52:00,70.0,41.0,30.05,WNW,290,13.0,17.0,35,-99.99,,,-99.99,,2013-05-10 21:52:00,
2013-05-10 17:02:00,70.0,41.0,30.05,WNW,290,13.0,17.0,35,-99.99,,,-99.99,,2013-05-10 22:02:00,
2013-05-10 17:12:00,68.0,41.0,30.05,WNW,300,8.0,-999.0,37,-99.99,,,-99.99,,2013-05-10 22:12:00,
2013-05-10 17:22:00,68.0,41.0,30.05,WNW,300,8.0,-999.0,37,-99.99,,,-99.99,,2013-05-10 22:22:00,
2013-05-10 17:32:00,70.0,41.0,30.04,West,280,12.0,-999.0,35,-99.99,,,-99.99,,2013-05-10 22:32:00,
2013-05-10 17:42:00,70.0,41.0,30.04,West,280,12.0,-999.0,35,-99.99,,,-99.99,,2013-05-10 22:42:00,
2013-05-10 17:52:00,70.0,41.0,30.03,NW,310,13.0,17.0,35,-99.99,,,-99.99,,2013-05-10 22:52:00,
2013-05-10 18:02:00,70.0,41.0,30.03,NW,310,13.0,17.0,35,-99.99,,,-99.99,,2013-05-10 23:02:00,
2013-05-10 18:12:00,70.0,41.0,30.03,NW,320,8.0,-999.0,35,-99.99,,,-99.99,,2013-05-10 23:12:00,
2013-05-10 18:22:00,70.0,41.0,30.03,NW,320,8.0,-999.0,35,-99.99,,,-99.99,,2013-05-10 23:22:00,
2013-05-10 18:32:00,70.0,39.0,30.03,West,280,14.0,18.0,32,-99.99,,,-99.99,,2013-05-10 23:32:00,
2013-05-10 18:42:00,70.0,39.0,30.03,West,280,14.0,18.0,32,-99.99,,,-99.99,,2013-05-10 23:42:00,
2013-05-10 18:52:00,70.0,39.0,30.02,West,270,8.0,-999.0,32,-99.99,,,-99.99,,2013-05-10 23:52:00,
2013-05-10 19:02:00,70.0,39.0,30.02,West,270,8.0,-999.0,32,-99.99,,,-99.99,,2013-05-11 00:02:00,
2013-05-10 19:11:00,70.0,41.0,30.01,West,280,12.0,16.0,35,-99.99,,,-99.99,,2013-05-11 00:11:00,
2013-05-10 19:21:00,70.0,41.0,30.01,West,280,12.0,16.0,35,-99.99,,,-99.99,,2013-05-11 00:21:00,
2013-05-10 19:32:00,70.0,43.0,30.02,West,270,12.0,16.0,37,-99.99,,,-99.99,,2013-05-11 00:32:00,
2013-05-10 19:42:00,70.0,43.0,30.02,West,270,12.0,16.0,37,-99.99,,,-99.99,,2013-05-11 00:42:00,
2013-05-10 19:51:00,68.0,43.0,30.02,WNW,290,10.0,15.0,40,-99.99,,,-99.99,,2013-05-11 00:51:00,
2013-05-10 20:01:00,68.0,43.0,30.02,WNW,290,10.0,15.0,40,-99.99,,,-99.99,,2013-05-11 01:01:00,
2013-05-10 20:11:00,66.0,43.0,30.02,WNW,290,8.0,-999.0,42,-99.99,,,-99.99,,2013-05-11 01:11:00,
2013-05-10 20:21:00,66.0,43.0,30.02,WNW,290,8.0,-999.0,42,-99.99,,,-99.99,,2013-05-11 01:21:00,
2013-05-10 20:32:00,64.0,43.0,30.01,West,260,5.0,-999.0,45,-99.99,,,-99.99,,2013-05-11 01:32:00,
2013-05-10 20:42:00,64.0,43.0,30.01,West,260,5.0,-999.0,45,-99.99,,,-99.99,,2013-05-11 01:42:00,
2013-05-10 20:52:00,63.0,43.0,30.01,North,0,0.0,-999.0,48,-99.99,,,-99.99,,2013-05-11 01:52:00,
2013-05-10 21:02:00,63.0,43.0,30.01,North,0,0.0,-999.0,48,-99.99,,,-99.99,,2013-05-11 02:02:00,
2013-05-10 21:11:00,61.0,43.0,30.02,North,0,0.0,-999.0,51,-99.99,,,-99.99,,2013-05-11 02:11:00,
2013-05-10 21:22:00,61.0,43.0,30.02,North,0,0.0,-999.0,51,-99.99,,,-99.99,,2013-05-11 02:22:00,
2013-05-10 21:32:00,61.0,43.0,30.02,North,0,0.0,-999.0,51,-99.99,,,-99.99,,2013-05-11 02:32:00,
2013-05-10 21:42:00,61.0,43.0,30.02,North,0,0.0,-999.0,51,-99.99,,,-99.99,,2013-05-11 02:42:00,
2013-05-10 21:51:00,61.0,45.0,30.02,North,0,0.0,-999.0,55,-99.99,,,-99.99,,2013-05-11 02:51:00,
2013-05-10 22:01:00,61.0,45.0,30.02,North,0,0.0,-999.0,55,-99.99,,,-99.99,,2013-05-11 03:01:00,
2013-05-10 22:11:00,61.0,45.0,30.02,SSW,210,6.0,-999.0,55,-99.99,,,-99.99,,2013-05-11 03:11:00,
2013-05-10 22:21:00,61.0,45.0,30.02,SSW,210,6.0,-999.0,55,-99.99,,,-99.99,,2013-05-11 03:21:00,
2013-05-10 22:33:00,61.0,45.0,30.03,WSW,250,6.0,-999.0,55,-99.99,,,-99.99,,2013-05-11 03:33:00,
2013-05-10 22:42:00,61.0,45.0,30.03,WSW,250,6.0,-999.0,55,-99.99,,,-99.99,,2013-05-11 03:42:00,
2013-05-10 22:53:00,63.0,46.0,30.03,West,260,7.0,-999.0,55,-99.99,,,-99.99,,2013-05-11 03:53:00,
2013-05-10 23:02:00,63.0,46.0,30.03,West,260,7.0,-999.0,55,-99.99,,,-99.99,,2013-05-11 04:02:00,
2013-05-10 23:12:00,63.0,46.0,30.03,WNW,290,17.0,22.0,55,-99.99,,,-99.99,,2013-05-11 04:12:00,
2013-05-10 23:23:00,63.0,46.0,30.03,WNW,290,17.0,22.0,55,-99.99,,,-99.99,,2013-05-11 04:23:00,
2013-05-10 23:33:00,63.0,48.0,30.03,WNW,300,14.0,22.0,59,-99.99,,,-99.99,,2013-05-11 04:33:00,
2013-05-10 23:43:00,63.0,48.0,30.03,WNW,300,14.0,22.0,59,-99.99,,,-99.99,,2013-05-11 04:43:00,
2013-05-10 23:52:00,63.0,45.0,30.04,North,350,25.0,32.0,51,-99.99,,,-99.99,,2013-05-11 04:52:00,